Time;durP1;ratioP1;P1;durP2;ratioP2;P2;SDS_P1;SDS_P2;PMS_P1;PMS_P2;Temp;Humidity;BMP_temperature;BMP_pressure;BME280_temperature;BME280_humidity;BME280_pressure;Samples;Min_cycle;Max_cycle;Signal;HPM_P1;HPM_P2
2021/07/25 00:00:32;;;;;;;;;6.00;5.00;;;;;20.33;68.23;100028.97;5077235;27;45348;-60
2021/07/25 00:02:57;;;;;;;;;5.75;5.75;;;;;20.31;68.49;100024.66;5075595;28;45938;-60
2021/07/25 00:05:23;;;;;;;;;9.00;6.50;;;;;20.30;67.84;100031.03;5075960;28;71322;-61
2021/07/25 00:07:48;;;;;;;;;7.75;5.00;;;;;20.30;67.82;100033.69;5077045;28;45872;-60
2021/07/25 00:10:14;;;;;;;;;4.75;4.25;;;;;20.30;68.12;100031.03;5076066;28;65906;-61
2021/07/25 00:12:39;;;;;;;;;4.00;4.00;;;;;20.30;67.50;100032.88;5076637;27;46056;-60
2021/07/25 00:15:05;;;;;;;;;7.00;5.00;;;;;20.28;67.66;100022.41;5075895;28;68484;-60
2021/07/25 00:17:30;;;;;;;;;4.00;4.00;;;;;20.27;67.96;100031.44;5076692;28;45298;-61
2021/07/25 00:19:56;;;;;;;;;3.00;3.00;;;;;20.25;68.21;100028.16;5076456;28;45438;-60
2021/07/25 00:22:21;;;;;;;;;6.25;5.00;;;;;20.25;68.39;100022.03;5075441;28;73584;-60
2021/07/25 00:24:52;;;;;;;;;4.75;4.75;;;;;20.24;68.07;100023.06;5075858;28;66626;-61
2021/07/25 00:27:26;;;;;;;;;6.50;4.50;;;;;20.25;67.86;100020.16;5077168;27;45308;-61
2021/07/25 00:29:52;;;;;;;;;3.00;2.25;;;;;20.24;67.86;100026.53;5076811;28;45312;-60
2021/07/25 00:32:17;;;;;;;;;5.75;3.00;;;;;20.25;67.47;100024.69;5075390;28;75592;-61
2021/07/25 00:34:44;;;;;;;;;4.75;3.00;;;;;20.27;67.41;100020.78;5074408;28;69343;-60
2021/07/25 00:37:09;;;;;;;;;4.25;4.25;;;;;20.27;67.76;100015.44;5076680;28;45322;-61
2021/07/25 00:39:35;;;;;;;;;3.50;2.50;;;;;20.28;67.58;100011.75;5075604;28;70354;-60
2021/07/25 00:42:00;;;;;;;;;3.00;3.00;;;;;20.29;67.49;100017.91;5074135;28;74578;-60
2021/07/25 00:44:25;;;;;;;;;4.75;3.00;;;;;20.30;66.66;100004.34;5074069;28;73163;-60
2021/07/25 00:46:58;;;;;;;;;4.00;3.00;;;;;20.30;66.12;100007.00;5076251;27;48454;-60
2021/07/25 00:49:24;;;;;;;;;2.50;2.50;;;;;20.33;65.82;99999.63;5076571;27;45514;-60
2021/07/25 00:51:49;;;;;;;;;4.00;4.00;;;;;20.34;65.92;100006.59;5058052;28;45934;-61
2021/07/25 00:54:15;;;;;;;;;5.00;3.25;;;;;20.34;66.26;100009.25;5075175;28;72198;-61
2021/07/25 00:56:40;;;;;;;;;3.50;3.00;;;;;20.29;66.58;100001.91;5074323;28;66582;-61
2021/07/25 00:59:05;;;;;;;;;2.50;2.00;;;;;20.28;66.56;100006.41;5075347;28;66653;-61
2021/07/25 01:01:31;;;;;;;;;1.25;1.00;;;;;20.27;66.43;100007.44;5076215;28;45461;-60
2021/07/25 01:04:04;;;;;;;;;3.75;3.00;;;;;20.24;66.55;100004.38;5075179;27;73216;-61
2021/07/25 01:06:48;;;;;;;;;2.75;2.50;;;;;20.24;66.82;100010.53;5075190;28;45373;-61
2021/07/25 01:09:19;;;;;;;;;3.75;3.00;;;;;20.21;66.47;100010.16;5076245;28;45371;-60
2021/07/25 01:11:53;;;;;;;;;3.00;3.00;;;;;20.17;66.36;100004.41;5058279;28;46211;-61
2021/07/25 01:14:39;;;;;;;;;3.00;3.00;;;;;20.15;66.47;99999.28;5058068;28;45767;-60
2021/07/25 01:17:22;;;;;;;;;3.50;3.50;;;;;20.15;67.03;100003.78;5075794;27;45380;-60
2021/07/25 01:19:49;;;;;;;;;3.00;3.00;;;;;20.15;66.91;100004.63;5075918;28;45215;-61
2021/07/25 01:22:14;;;;;;;;;3.00;3.00;;;;;20.17;66.96;99999.91;5074664;28;46181;-60
2021/07/25 01:24:39;;;;;;;;;5.50;4.00;;;;;20.17;66.75;99994.56;5075045;27;70582;-61
2021/07/25 01:27:05;;;;;;;;;2.75;2.75;;;;;20.19;66.17;99988.19;5075065;28;68181;-60
2021/07/25 01:29:30;;;;;;;;;4.00;3.00;;;;;20.19;66.26;99990.88;5079207;28;45683;-61
2021/07/25 01:31:55;;;;;;;;;6.50;3.00;;;;;20.22;66.26;99998.44;5076844;28;75582;-60
2021/07/25 01:34:21;;;;;;;;;4.00;3.00;;;;;20.21;66.52;99994.94;5078354;27;73210;-60
2021/07/25 01:36:46;;;;;;;;;4.25;3.00;;;;;20.22;65.79;99985.09;5060255;28;67930;-60
2021/07/25 01:39:12;;;;;;;;;4.75;2.00;;;;;20.23;66.26;99997.41;5077136;28;66458;-60
2021/07/25 01:41:43;;;;;;;;;3.25;2.00;;;;;20.22;66.46;99988.59;5077007;28;69229;-60
2021/07/25 01:44:09;;;;;;;;;3.75;2.25;;;;;20.21;66.79;99989.59;5079125;28;45378;-60
2021/07/25 01:46:34;;;;;;;;;2.75;2.75;;;;;20.23;66.47;99998.22;5077951;28;45435;-61
2021/07/25 01:48:59;;;;;;;;;2.25;2.25;;;;;20.23;66.61;99998.22;5078110;27;67657;-61
2021/07/25 01:51:25;;;;;;;;;1.00;1.00;;;;;20.22;66.70;99995.78;5077852;27;75589;-61
2021/07/25 01:53:50;;;;;;;;;3.00;3.00;;;;;20.22;66.83;100001.13;5079015;27;45494;-60
2021/07/25 01:56:16;;;;;;;;;5.75;2.50;;;;;20.20;66.76;100003.97;5078453;28;58953;-61
2021/07/25 01:58:41;;;;;;;;;2.00;2.00;;;;;20.19;66.28;100002.34;5078066;27;65915;-60
2021/07/25 02:01:06;;;;;;;;;3.00;3.00;;;;;20.19;66.48;100006.88;5077819;27;75143;-60
2021/07/25 02:03:33;;;;;;;;;2.00;1.00;;;;;20.18;66.80;100000.69;5078774;27;45312;-60
2021/07/25 02:05:59;;;;;;;;;2.25;2.25;;;;;20.18;66.66;100003.38;5079035;27;45397;-60
2021/07/25 02:08:24;;;;;;;;;3.00;3.00;;;;;20.16;66.96;100003.59;5059864;28;65558;-60
2021/07/25 02:10:50;;;;;;;;;2.00;2.00;;;;;20.19;66.45;100002.34;5078571;27;46030;-59
2021/07/25 02:13:16;;;;;;;;;3.50;3.00;;;;;20.20;66.56;99998.66;5078636;27;45855;-61
2021/07/25 02:15:41;;;;;;;;;3.00;2.00;;;;;20.23;66.54;99998.22;5078772;27;45445;-61
2021/07/25 02:18:07;;;;;;;;;4.00;3.00;;;;;20.24;66.40;99991.84;5078839;28;45349;-60
2021/07/25 02:20:33;;;;;;;;;2.75;2.00;;;;;20.25;66.86;99988.16;5078212;27;49199;-60
2021/07/25 02:22:58;;;;;;;;;2.75;1.75;;;;;20.26;66.84;99989.00;5078573;27;45215;-60
2021/07/25 02:25:23;;;;;;;;;2.00;2.00;;;;;20.27;66.47;99982.63;5078183;27;52250;-60
2021/07/25 02:27:49;;;;;;;;;3.00;3.00;;;;;20.26;66.04;99979.13;5077516;27;69403;-61
2021/07/25 02:30:14;;;;;;;;;4.00;2.00;;;;;20.26;66.46;99987.13;5077245;27;75080;-61
2021/07/25 02:32:39;;;;;;;;;2.75;2.75;;;;;20.28;66.29;99985.06;5078469;28;45287;-60
2021/07/25 02:35:05;;;;;;;;;2.75;2.50;;;;;20.29;66.69;99984.03;5077807;27;57294;-60
2021/07/25 02:37:31;;;;;;;;;2.00;2.00;;;;;20.29;66.60;99981.38;5078348;27;45370;-61
2021/07/25 02:39:56;;;;;;;;;4.00;2.00;;;;;20.30;66.72;99979.53;5077781;27;52976;-60
2021/07/25 02:42:21;;;;;;;;;2.00;2.00;;;;;20.29;66.42;99984.03;5077162;27;69339;-61
2021/07/25 02:44:47;;;;;;;;;3.00;3.00;;;;;20.30;66.43;99974.19;5077331;28;68367;-61
2021/07/25 02:47:12;;;;;;;;;3.25;2.00;;;;;20.33;66.14;99975.59;5077481;27;61996;-60
2021/07/25 02:49:38;;;;;;;;;3.00;3.00;;;;;20.33;66.03;99972.94;5078135;27;45461;-60
2021/07/25 02:52:03;;;;;;;;;6.00;3.00;;;;;20.34;66.28;99977.25;5075831;28;68311;-60
2021/07/25 02:54:29;;;;;;;;;3.25;3.00;;;;;20.35;66.81;99973.53;5078158;28;45432;-60
2021/07/25 02:56:54;;;;;;;;;4.00;4.00;;;;;20.36;66.42;99975.16;5078020;27;45370;-60
2021/07/25 02:59:20;;;;;;;;;2.00;2.00;;;;;20.37;66.07;99969.63;5077016;27;71741;-60
2021/07/25 03:01:45;;;;;;;;;4.00;4.00;;;;;20.37;65.39;99966.13;5077487;28;53763;-61
2021/07/25 03:04:11;;;;;;;;;4.25;3.75;;;;;20.36;65.97;99964.50;5078019;27;45241;-60
2021/07/25 03:06:36;;;;;;;;;3.75;3.75;;;;;20.33;66.57;99964.94;5077594;28;49974;-61
2021/07/25 03:09:02;;;;;;;;;3.00;3.00;;;;;20.33;66.30;99971.09;5076720;27;75036;-60
2021/07/25 03:11:27;;;;;;;;;3.00;2.75;;;;;20.35;65.66;99968.19;5077691;27;45386;-60
2021/07/25 03:13:52;;;;;;;;;3.75;3.00;;;;;20.33;65.98;99964.94;5078027;27;45400;-60
2021/07/25 03:16:18;;;;;;;;;3.00;3.00;;;;;20.33;65.63;99971.09;5076458;28;69317;-60
2021/07/25 03:18:43;;;;;;;;;4.00;3.00;;;;;20.31;65.20;99968.63;5076165;27;46100;-60
2021/07/25 03:21:09;;;;;;;;;3.00;3.00;;;;;20.31;65.35;99963.28;5077283;27;45228;-61
2021/07/25 03:23:34;;;;;;;;;2.25;2.25;;;;;20.30;65.27;99961.66;5076829;27;66448;-61
2021/07/25 03:26:00;;;;;;;;;6.00;3.00;;;;;20.31;65.44;99962.50;5077716;27;45208;-60
2021/07/25 03:28:25;;;;;;;;;3.00;3.00;;;;;20.30;65.63;99958.19;5076207;28;73384;-61
2021/07/25 03:30:50;;;;;;;;;3.00;2.00;;;;;20.28;65.50;99962.91;5076490;27;72174;-61
2021/07/25 03:33:16;;;;;;;;;3.50;2.00;;;;;20.30;65.19;99960.84;5077680;28;45165;-60
2021/07/25 03:35:41;;;;;;;;;2.75;2.00;;;;;20.30;64.76;99959.00;5077376;27;45484;-60
2021/07/25 03:38:07;;;;;;;;;4.00;3.00;;;;;20.29;65.12;99956.56;5077239;27;45294;-60
2021/07/25 03:40:33;;;;;;;;;3.00;3.00;;;;;20.25;66.03;99958.81;5077066;28;45472;-60
2021/07/25 03:42:58;;;;;;;;;3.00;3.00;;;;;20.21;65.55;99959.47;5077293;28;45379;-60
2021/07/25 03:45:24;;;;;;;;;3.00;3.00;;;;;20.19;65.63;99956.19;5076996;27;52925;-61
2021/07/25 03:47:49;;;;;;;;;2.75;2.75;;;;;20.16;65.31;99960.09;5077069;27;46002;-61
2021/07/25 03:50:14;;;;;;;;;2.75;2.75;;;;;20.12;65.34;99959.72;5076354;27;52454;-61
2021/07/25 03:52:40;;;;;;;;;3.00;3.00;;;;;20.08;65.11;99958.50;5058008;28;64025;-61
2021/07/25 03:55:06;;;;;;;;;4.75;3.50;;;;;20.04;65.73;99951.16;5058790;28;45764;-61
2021/07/25 03:57:32;;;;;;;;;5.00;3.50;;;;;19.95;65.86;99951.41;5076937;27;45821;-60
2021/07/25 03:59:57;;;;;;;;;4.00;3.00;;;;;19.93;66.08;99950.78;5075853;28;45875;-61
2021/07/25 04:02:23;;;;;;;;;2.00;2.00;;;;;19.91;66.16;99955.50;5076155;28;69286;-60
2021/07/25 04:04:48;;;;;;;;;3.00;3.00;;;;;19.87;66.42;99948.94;5075801;27;70501;-61
2021/07/25 04:07:13;;;;;;;;;5.00;4.00;;;;;19.85;66.49;99943.84;5075889;27;75487;-60
2021/07/25 04:09:39;;;;;;;;;3.25;2.00;;;;;19.85;66.52;99948.31;5076196;28;61704;-61
2021/07/25 04:12:04;;;;;;;;;3.00;3.00;;;;;19.83;66.69;99945.06;5076331;27;45192;-60
2021/07/25 04:14:30;;;;;;;;;2.50;2.50;;;;;19.82;66.52;99941.59;5076870;28;45346;-60
2021/07/25 04:16:55;;;;;;;;;3.00;3.00;;;;;19.79;66.22;99935.84;5075825;27;71964;-60
2021/07/25 04:19:20;;;;;;;;;5.25;4.00;;;;;19.78;66.58;99939.53;5076282;27;55169;-60
2021/07/25 04:21:46;;;;;;;;;3.00;3.00;;;;;19.77;66.69;99935.25;5075682;27;65243;-60
2021/07/25 04:24:11;;;;;;;;;4.75;3.25;;;;;19.76;66.53;99944.25;5076549;27;45235;-60
2021/07/25 04:26:37;;;;;;;;;3.00;2.50;;;;;19.73;66.65;99938.31;5075467;27;71736;-60
2021/07/25 04:29:02;;;;;;;;;6.00;3.00;;;;;19.72;66.82;99944.69;5076632;27;45245;-60
2021/07/25 04:31:28;;;;;;;;;5.00;2.75;;;;;19.71;67.35;99943.03;5076636;28;45533;-60
2021/07/25 04:33:55;;;;;;;;;2.00;2.00;;;;;19.69;67.05;99945.09;5076416;27;45421;-60
2021/07/25 04:36:25;;;;;;;;;5.00;3.25;;;;;19.69;67.47;99944.31;5076365;27;46234;-60
2021/07/25 04:38:51;;;;;;;;;2.75;2.75;;;;;19.68;66.81;99943.47;5076569;27;45423;-60
2021/07/25 04:41:16;;;;;;;;;2.75;2.00;;;;;19.67;67.27;99930.38;5076508;27;45255;-60
2021/07/25 04:43:42;;;;;;;;;5.25;3.00;;;;;19.67;66.95;99939.16;5057351;28;66111;-60
2021/07/25 04:46:16;;;;;;;;;4.25;3.25;;;;;19.64;67.09;99936.91;5075429;27;54968;-60
2021/07/25 04:48:46;;;;;;;;;3.50;3.00;;;;;19.60;67.07;99941.06;5075180;27;45299;-60
2021/07/25 04:51:11;;;;;;;;;3.25;2.50;;;;;19.57;67.15;99946.81;5076480;27;45444;-60
2021/07/25 04:53:38;;;;;;;;;3.00;3.00;;;;;19.53;67.33;99948.25;5075342;28;65040;-60
2021/07/25 04:56:04;;;;;;;;;2.25;2.00;;;;;19.49;67.78;99939.03;5076104;27;46163;-60
2021/07/25 04:58:37;;;;;;;;;4.00;3.00;;;;;19.48;67.65;99943.53;5076129;27;45793;-60
2021/07/25 05:01:03;;;;;;;;;4.00;4.00;;;;;19.49;67.40;99939.84;5076278;28;45249;-60
2021/07/25 05:03:33;;;;;;;;;3.50;2.00;;;;;19.48;67.97;99945.41;5078006;27;45220;-60
2021/07/25 05:05:58;;;;;;;;;2.75;2.00;;;;;19.50;67.63;99952.13;5079674;27;45500;-60
2021/07/25 05:08:24;;;;;;;;;3.00;2.50;;;;;19.51;67.69;99945.78;5078853;28;67676;-61
2021/07/25 05:10:52;;;;;;;;;5.75;3.00;;;;;19.53;67.75;99948.25;5078713;27;47054;-60
2021/07/25 05:13:17;;;;;;;;;3.00;3.00;;;;;19.53;67.65;99951.72;5062002;28;45515;-60
2021/07/25 05:15:44;;;;;;;;;2.75;2.00;;;;;19.53;67.54;99949.06;5078394;27;74550;-60
2021/07/25 05:18:20;;;;;;;;;4.25;4.00;;;;;19.54;67.28;99939.22;5079324;27;45346;-60
2021/07/25 05:20:52;;;;;;;;;3.00;3.00;;;;;19.53;67.74;99950.91;5077989;28;46821;-60
2021/07/25 05:23:25;;;;;;;;;3.50;3.00;;;;;19.52;67.70;99949.28;5079546;28;45572;-61
2021/07/25 05:25:52;;;;;;;;;5.00;3.00;;;;;19.51;67.86;99955.63;5079143;27;45362;-60
2021/07/25 05:28:18;;;;;;;;;4.00;3.00;;;;;19.48;68.15;99956.06;5079328;27;45335;-61
2021/07/25 05:30:44;;;;;;;;;5.00;3.33;;;;;19.49;68.06;99958.50;5079381;27;45436;-60
2021/07/25 05:33:10;;;;;;;;;3.25;2.50;;;;;19.50;67.71;99956.66;5079266;27;45375;-60
2021/07/25 05:35:36;;;;;;;;;4.00;3.75;;;;;19.51;67.68;99952.97;5079034;27;45919;-60
2021/07/25 05:38:01;;;;;;;;;5.25;3.75;;;;;19.52;67.87;99957.28;5078490;27;69348;-60
2021/07/25 05:40:27;;;;;;;;;4.00;3.75;;;;;19.51;67.69;99955.63;5079130;27;46713;-61
2021/07/25 05:42:52;;;;;;;;;3.00;3.00;;;;;19.49;67.73;99952.38;5078255;27;70374;-60
2021/07/25 05:45:17;;;;;;;;;3.00;3.00;;;;;19.48;68.21;99959.53;5079117;27;46078;-60
2021/07/25 05:47:43;;;;;;;;;3.75;3.00;;;;;19.48;67.88;99956.84;5077987;28;73390;-61
2021/07/25 05:50:09;;;;;;;;;2.75;2.75;;;;;19.47;68.18;99946.44;5077928;27;69122;-60
2021/07/25 05:53:01;;;;;;;;;5.00;3.00;;;;;19.49;67.86;99955.81;5079022;28;45495;-60
2021/07/25 05:55:31;;;;;;;;;4.00;3.00;;;;;19.50;68.26;99949.47;5075878;27;45294;-60
2021/07/25 05:57:56;;;;;;;;;3.00;3.00;;;;;19.54;68.31;99952.56;5077466;28;45811;-60
2021/07/25 06:00:22;;;;;;;;;3.00;2.50;;;;;19.57;68.32;99954.81;5078738;28;45323;-60
2021/07/25 06:02:57;;;;;;;;;4.00;4.00;;;;;19.59;68.32;99952.75;5078584;27;45571;-60
2021/07/25 06:05:25;;;;;;;;;4.00;3.25;;;;;19.63;67.87;99947.81;5077134;28;47817;-61
2021/07/25 06:07:51;;;;;;;;;3.75;3.00;;;;;19.66;68.21;99950.03;5078801;27;45270;-60
2021/07/25 06:10:16;;;;;;;;;3.00;3.00;;;;;19.68;68.38;99942.66;5078163;27;45241;-60
2021/07/25 06:12:42;;;;;;;;;3.50;2.50;;;;;19.71;68.24;99943.03;5078711;27;45195;-60
2021/07/25 06:15:08;;;;;;;;;3.00;3.00;;;;;19.73;68.02;99941.00;5077987;28;47799;-60
2021/07/25 06:17:33;;;;;;;;;4.00;4.00;;;;;19.75;67.36;99942.63;5078661;27;45427;-61
2021/07/25 06:19:59;;;;;;;;;7.00;4.00;;;;;19.76;67.55;99947.75;5078389;27;45354;-60
2021/07/25 06:22:24;;;;;;;;;5.75;4.00;;;;;19.75;67.67;99934.63;5077714;27;64833;-61
2021/07/25 06:24:49;;;;;;;;;5.00;4.00;;;;;19.75;67.73;99939.97;5077488;28;72546;-61
2021/07/25 06:27:15;;;;;;;;;4.00;3.25;;;;;19.74;67.38;99944.47;5077308;28;68077;-60
2021/07/25 06:29:40;;;;;;;;;3.00;3.00;;;;;19.75;67.84;99946.13;5077530;27;65547;-61
2021/07/25 06:32:09;;;;;;;;;2.00;1.00;;;;;19.77;67.75;99945.91;5077881;27;51892;-60
2021/07/25 06:34:34;;;;;;;;;36.25;34.00;;;;;19.80;67.44;99958.81;5078010;27;46085;-60
2021/07/25 06:37:00;;;;;;;;;4.25;3.50;;;;;19.84;67.21;99954.69;5077906;28;50915;-60
2021/07/25 06:39:25;;;;;;;;;6.00;4.00;;;;;19.89;67.35;99954.06;5078197;28;45338;-60
2021/07/25 06:41:50;;;;;;;;;4.00;3.50;;;;;19.90;67.16;99956.53;5077302;27;66836;-60
2021/07/25 06:44:16;;;;;;;;;5.00;4.00;;;;;19.93;67.27;99957.94;5077098;27;74571;-60
2021/07/25 06:46:41;;;;;;;;;5.00;4.00;;;;;19.94;66.79;99952.41;5075742;28;67337;-59
2021/07/25 06:49:07;;;;;;;;;4.75;4.75;;;;;19.98;66.96;99961.63;5077869;27;48285;-61
2021/07/25 06:51:32;;;;;;;;;5.00;5.00;;;;;20.00;67.33;99956.91;5078108;27;45224;-60
2021/07/25 06:53:57;;;;;;;;;6.25;6.00;;;;;20.06;67.45;99951.75;5077789;27;48493;-60
2021/07/25 06:56:23;;;;;;;;;5.50;5.00;;;;;20.09;67.00;99959.34;5077211;28;68175;-61
2021/07/25 06:58:48;;;;;;;;;4.75;4.75;;;;;20.14;66.53;99956.81;5076616;27;45281;-60
2021/07/25 07:01:14;;;;;;;;;5.00;5.00;;;;;20.17;66.79;99967.06;5076967;28;66951;-61
2021/07/25 07:03:39;;;;;;;;;5.25;5.25;;;;;20.20;66.53;99961.31;5077762;28;45401;-60
2021/07/25 07:06:08;;;;;;;;;5.00;5.00;;;;;20.24;66.57;99962.50;5076816;27;69365;-60
2021/07/25 07:08:33;;;;;;;;;6.00;6.00;;;;;20.26;66.15;99959.66;5076571;28;45390;-60
2021/07/25 07:10:59;;;;;;;;;5.75;5.75;;;;;20.30;65.87;99969.66;5076791;27;69734;-59
2021/07/25 07:13:24;;;;;;;;;4.00;3.25;;;;;20.31;65.61;99968.63;5076612;27;75554;-60
2021/07/25 07:15:49;;;;;;;;;7.00;6.25;;;;;20.36;65.90;99964.50;5076581;27;72430;-61
2021/07/25 07:18:15;;;;;;;;;5.50;5.00;;;;;20.45;65.30;99961.34;5077821;27;45206;-61
2021/07/25 07:20:41;;;;;;;;;5.75;5.00;;;;;20.53;64.95;99967.47;5077310;27;45538;-60
2021/07/25 07:23:14;;;;;;;;;7.75;6.50;;;;;20.57;64.70;99966.00;5076238;27;74572;-61
2021/07/25 07:25:42;;;;;;;;;9.75;8.75;;;;;20.59;64.75;99970.09;5076427;27;45179;-60
2021/07/25 07:28:07;;;;;;;;;8.00;8.00;;;;;20.62;64.57;99971.50;5077492;27;45302;-60
2021/07/25 07:30:33;;;;;;;;;6.25;5.00;;;;;20.61;65.00;99968.03;5077186;27;53221;-60
2021/07/25 07:33:11;;;;;;;;;8.00;6.50;;;;;20.64;64.86;99982.00;5076918;27;46089;-60
2021/07/25 07:35:37;;;;;;;;;5.50;5.50;;;;;20.64;65.26;99977.44;5077130;27;47696;-60
2021/07/25 07:38:02;;;;;;;;;8.00;7.00;;;;;20.66;64.72;99979.91;5077517;28;45824;-61
2021/07/25 07:40:28;;;;;;;;;6.50;6.25;;;;;20.67;64.20;99968.19;5077325;27;45327;-61
2021/07/25 07:42:53;;;;;;;;;6.00;6.00;;;;;20.69;64.44;99974.13;5077017;28;45981;-60
2021/07/25 07:45:19;;;;;;;;;7.50;6.00;;;;;20.73;64.40;99976.16;5076318;27;68014;-61
2021/07/25 07:47:45;;;;;;;;;8.00;6.00;;;;;20.77;64.25;99981.91;5077169;27;45231;-60
2021/07/25 07:50:11;;;;;;;;;8.00;7.00;;;;;20.79;63.84;99979.03;5077220;27;45256;-60
2021/07/25 07:52:36;;;;;;;;;10.00;6.75;;;;;20.78;63.77;99978.19;5076107;28;70381;-60
2021/07/25 07:55:02;;;;;;;;;9.75;6.00;;;;;20.80;63.54;99976.13;5076846;28;45393;-60
2021/07/25 07:57:28;;;;;;;;;10.00;7.75;;;;;20.82;63.56;99976.72;5077008;27;45440;-60
2021/07/25 07:59:53;;;;;;;;;7.25;6.00;;;;;20.86;63.21;99974.44;5076313;27;57737;-60
2021/07/25 08:02:18;;;;;;;;;8.75;7.00;;;;;20.90;63.15;99971.13;5076338;27;55874;-61
2021/07/25 08:04:44;;;;;;;;;6.75;6.75;;;;;20.95;63.11;99969.66;5074559;28;73182;-61
2021/07/25 08:07:09;;;;;;;;;7.00;7.00;;;;;21.00;62.40;99972.47;5076096;27;67996;-61
2021/07/25 08:09:34;;;;;;;;;7.25;6.25;;;;;21.04;62.71;99973.69;5075881;27;68241;-61
2021/07/25 08:12:01;;;;;;;;;9.25;8.00;;;;;21.11;62.32;99971.75;5076182;27;61455;-61
2021/07/25 08:14:26;;;;;;;;;8.50;8.25;;;;;21.18;62.06;99972.53;5075006;28;52851;-61
2021/07/25 08:16:52;;;;;;;;;6.25;6.25;;;;;21.25;62.27;99977.78;5075986;27;69203;-60
2021/07/25 08:19:17;;;;;;;;;10.50;8.50;;;;;21.31;61.86;99971.56;5076932;27;45490;-60
2021/07/25 08:21:43;;;;;;;;;7.75;6.25;;;;;21.38;61.59;99976.03;5075050;28;46314;-60
2021/07/25 08:24:08;;;;;;;;;8.75;8.75;;;;;21.40;62.29;99968.63;5075927;28;64533;-60
2021/07/25 08:26:34;;;;;;;;;12.25;10.00;;;;;21.45;61.58;99974.13;5076718;27;45441;-61
2021/07/25 08:29:00;;;;;;;;;7.00;6.00;;;;;21.45;61.44;99968.75;5076731;27;45226;-60
2021/07/25 08:31:25;;;;;;;;;9.50;7.50;;;;;21.48;61.91;99973.63;5076357;27;47509;-60
2021/07/25 08:33:50;;;;;;;;;9.25;8.25;;;;;21.52;61.29;99977.50;5075480;27;73207;-61
2021/07/25 08:36:16;;;;;;;;;9.75;7.75;;;;;21.54;61.13;99972.75;5076539;27;45227;-60
2021/07/25 08:38:42;;;;;;;;;11.00;8.00;;;;;21.55;61.33;99977.06;5080052;27;45576;-60
2021/07/25 08:41:13;;;;;;;;;8.50;6.75;;;;;21.57;61.89;99979.53;5079426;28;45367;-60
2021/07/25 08:43:41;;;;;;;;;8.75;6.75;;;;;21.58;61.31;99979.28;5079696;27;46204;-61
2021/07/25 08:46:19;;;;;;;;;8.75;8.00;;;;;21.55;61.28;99977.06;5080212;27;45353;-60
2021/07/25 08:48:46;;;;;;;;;9.75;8.00;;;;;21.52;61.08;99977.50;5080237;27;45384;-60
2021/07/25 08:51:15;;;;;;;;;10.25;10.25;;;;;21.48;61.24;99977.16;5079631;27;46900;-60
2021/07/25 08:53:41;;;;;;;;;8.25;6.75;;;;;21.45;61.84;99969.56;5079947;27;45822;-60
2021/07/25 08:56:06;;;;;;;;;7.00;7.00;;;;;21.46;61.79;99973.88;5061759;28;45260;-60
2021/07/25 08:58:32;;;;;;;;;8.00;7.00;;;;;21.48;61.73;99968.28;5079931;27;45284;-61
2021/07/25 09:00:57;;;;;;;;;9.50;7.25;;;;;21.49;61.50;99970.75;5078320;28;46058;-61
2021/07/25 09:03:27;;;;;;;;;8.00;8.00;;;;;21.50;61.31;99975.06;5077656;28;73214;-60
2021/07/25 09:05:52;;;;;;;;;9.75;7.00;;;;;21.52;61.04;99966.81;5079826;27;45386;-60
2021/07/25 09:08:21;;;;;;;;;8.50;7.25;;;;;21.55;60.82;99971.72;5077534;28;70461;-60
2021/07/25 09:10:46;;;;;;;;;11.25;9.00;;;;;21.59;61.19;99964.88;5078091;28;53194;-61
2021/07/25 09:13:12;;;;;;;;;8.50;7.75;;;;;21.60;60.28;99963.84;5061165;28;47344;-61
2021/07/25 09:15:37;;;;;;;;;8.75;8.75;;;;;21.63;60.34;99970.66;5079137;27;45586;-60
2021/07/25 09:18:03;;;;;;;;;10.00;10.00;;;;;21.66;60.32;99967.53;5079448;27;45454;-61
2021/07/25 09:20:33;;;;;;;;;10.50;8.75;;;;;21.70;59.81;99963.38;5079084;27;46123;-60
2021/07/25 09:23:03;;;;;;;;;9.25;9.00;;;;;21.73;60.52;99962.91;5079019;27;47841;-61
2021/07/25 09:25:34;;;;;;;;;7.00;7.00;;;;;21.79;60.00;99969.22;5079065;28;45319;-60
2021/07/25 09:27:59;;;;;;;;;9.00;8.50;;;;;21.82;60.17;99971.44;5077914;28;45453;-60
2021/07/25 09:30:27;;;;;;;;;11.00;11.00;;;;;21.82;60.25;99971.44;5078915;28;47805;-60
2021/07/25 09:32:52;;;;;;;;;9.50;8.75;;;;;21.81;60.57;99972.50;5078970;27;45540;-60
2021/07/25 09:35:27;;;;;;;;;6.50;6.50;;;;;21.77;60.77;99971.31;5077001;28;68276;-60
2021/07/25 09:37:56;;;;;;;;;8.50;8.50;;;;;21.74;61.45;99969.88;5079179;27;45304;-60
2021/07/25 09:40:25;;;;;;;;;9.00;8.00;;;;;21.76;61.68;99978.50;5078632;28;49947;-61
2021/07/25 09:43:07;;;;;;;;;8.50;8.50;;;;;21.74;61.67;99977.91;5079035;27;45464;-61
2021/07/25 09:45:32;;;;;;;;;11.25;9.75;;;;;21.72;61.61;99984.53;5079183;28;46137;-60
2021/07/25 09:48:09;;;;;;;;;6.75;6.75;;;;;21.66;62.27;99988.09;5077489;28;45411;-60
2021/07/25 09:50:35;;;;;;;;;10.00;9.50;;;;;21.59;62.61;99996.97;5078578;27;45244;-60
2021/07/25 09:53:00;;;;;;;;;8.50;8.00;;;;;21.52;63.78;99998.09;5077486;28;45744;-60
2021/07/25 09:55:29;;;;;;;;;10.00;7.75;;;;;21.45;64.17;99987.47;5059937;28;69350;-60
2021/07/25 09:57:54;;;;;;;;;6.25;6.25;;;;;21.37;65.11;99996.56;5078717;27;51603;-60
2021/07/25 10:00:20;;;;;;;;;8.00;6.75;;;;;21.29;65.63;99989.69;5078763;27;46977;-60
2021/07/25 10:02:45;;;;;;;;;7.25;7.25;;;;;21.22;65.40;99990.75;5078566;27;50081;-60
2021/07/25 10:05:14;;;;;;;;;9.00;6.50;;;;;21.15;65.28;99988.16;5077807;27;68604;-60
2021/07/25 10:07:40;;;;;;;;;6.50;5.00;;;;;21.12;65.27;99983.25;5078836;28;45357;-60
2021/07/25 10:10:06;;;;;;;;;4.50;4.50;;;;;21.09;65.57;99975.69;5078583;27;46054;-60
2021/07/25 10:12:32;;;;;;;;;8.00;5.00;;;;;21.08;64.31;99976.72;5078350;27;45385;-61
2021/07/25 10:14:59;;;;;;;;;9.75;8.00;;;;;21.07;65.03;99980.41;5078650;28;45344;-59
2021/07/25 10:17:25;;;;;;;;;8.75;7.00;;;;;21.08;65.34;99972.22;5078879;28;45522;-60
2021/07/25 10:19:51;;;;;;;;;8.75;6.00;;;;;21.14;66.38;99967.81;5077103;27;45371;-61
2021/07/25 10:22:16;;;;;;;;;8.75;7.25;;;;;21.17;65.61;99970.06;5077379;28;45356;-60
2021/07/25 10:24:45;;;;;;;;;9.25;8.00;;;;;21.19;66.49;99976.84;5060453;28;45267;-60
2021/07/25 10:27:11;;;;;;;;;10.00;9.75;;;;;21.23;66.50;99968.34;5077443;28;45209;-60
2021/07/25 10:29:40;;;;;;;;;9.00;9.00;;;;;21.26;66.12;99963.41;5076926;28;51560;-60
2021/07/25 10:32:08;;;;;;;;;9.75;8.25;;;;;21.27;66.67;99964.19;5078074;27;45452;-60
2021/07/25 10:34:35;;;;;;;;;8.25;8.25;;;;;21.28;66.57;99958.66;5078167;27;45246;-60
2021/07/25 10:37:00;;;;;;;;;10.50;8.00;;;;;21.30;65.58;99963.75;5078294;27;45180;-61
2021/07/25 10:39:26;;;;;;;;;9.25;8.00;;;;;21.30;65.74;99964.59;5078106;28;45421;-61
2021/07/25 10:41:52;;;;;;;;;11.50;8.00;;;;;21.32;65.39;99961.69;5075645;27;72623;-60
2021/07/25 10:44:18;;;;;;;;;9.00;7.75;;;;;21.35;66.71;99955.91;5075935;28;69317;-60
2021/07/25 10:46:43;;;;;;;;;8.00;5.75;;;;;21.40;66.21;99958.72;5078240;27;45458;-60
2021/07/25 10:49:11;;;;;;;;;9.00;8.75;;;;;21.46;66.17;99957.84;5076380;28;45842;-60
2021/07/25 10:51:55;;;;;;;;;10.75;8.75;;;;;21.56;65.51;99957.31;5077649;27;45281;-61
2021/07/25 10:54:27;;;;;;;;;13.50;11.00;;;;;21.66;66.71;99956.84;5076834;28;45268;-61
2021/07/25 10:57:11;;;;;;;;;13.75;12.00;;;;;21.82;66.08;99958.06;5077623;28;45378;-60
2021/07/25 10:59:39;;;;;;;;;9.50;9.00;;;;;22.00;64.69;99949.19;5077353;27;45373;-60
2021/07/25 11:02:04;;;;;;;;;18.00;15.75;;;;;22.19;65.24;99951.84;5076564;28;45894;-60
2021/07/25 11:04:48;;;;;;;;;14.00;13.00;;;;;22.42;65.10;99945.72;5077536;27;45342;-60
2021/07/25 11:07:22;;;;;;;;;12.25;8.50;;;;;22.67;63.99;99939.41;5077649;28;45351;-60
2021/07/25 11:10:07;;;;;;;;;8.75;8.00;;;;;22.92;64.02;99941.06;5077265;28;46134;-61
2021/07/25 11:12:47;;;;;;;;;12.25;9.50;;;;;23.13;63.16;99947.69;5076001;28;45790;-60
2021/07/25 11:15:28;;;;;;;;;10.75;10.50;;;;;23.34;62.46;99940.09;5077527;28;45339;-60
2021/07/25 11:17:54;;;;;;;;;10.00;9.00;;;;;23.51;61.50;99935.66;5077453;27;45382;-60
2021/07/25 11:20:51;;;;;;;;;12.50;11.50;;;;;23.71;61.43;99939.81;5077207;28;45220;-60
2021/07/25 11:23:19;;;;;;;;;12.75;11.50;;;;;23.88;59.67;99939.03;5077235;28;45392;-61
2021/07/25 11:25:45;;;;;;;;;15.25;13.25;;;;;24.02;58.57;99936.91;5077383;28;45287;-61
2021/07/25 11:28:11;;;;;;;;;13.25;11.50;;;;;24.13;60.33;99942.22;5077178;27;50196;-61
2021/07/25 11:30:48;;;;;;;;;12.25;11.75;;;;;24.20;58.08;99933.22;5075618;28;46013;-60